Pagrindinis puslapis
METAR-TAF:

METAR-TAF

Oro uostai :

Horta, Azorai, Portugalija

platuma: 38-31N, ilguma: 028-43W, Aukštis: 40 m

Dabartinis oras

Ataskaita buvo paskelbta 31 minutes, ne 19:30 UTC
Vėjas 7 kt iš Šiaurės, svyruoja nuo Šiaurės/Šiaurės Vakarų ir Šiaurės Rytų
Temperatūra 18°C
Drėgmė 77%
Slėgis 1020 hPa
Matomumas 10 km arba daugiau
Mažai debesys ne aukštis 1500 ft

METAR: LPHR 221930Z 01007KT 340V040 9999 FEW015 18/14 Q1020

Laikas: 20:01 (20:01 UTC)

Prognozė

Ataskaita buvo paskelbta 6 valandos ir 1 minutes, ne 14:00 UTC
Prognozė galioja nuo 22 metu 15 UTC su 22 metu 24 UTC
Vėjas 12 kt iš Šiaurės Rytų
Matomumas 10 km arba daugiau
Išsisklaidę debesys ne aukštis 1200 ft
Su prošvaistėmis ne aukštis 4000 ft

TAF: LPHR 221400Z 2215/2224 04012KT 9999 SCT012 BKN040

Orai ataskaitas ir orų prognozės (METAR, TAF).

turimą stotys yra geltonos ir raudonos taškus žemėlapyje.

Perkelti pele per norėdami pamatyti stoties vardą.

Tada spustelėkite, norėdami matyti oro stebėjimo ir prognozės.

Norėdami pakeisti žemėlapį: spustelėkite ant žalios mygtukų su juodo kryžiaus žemyn,; žalią mygtuką su brūkšneliu, jei norite nutolinti; arba žalių rodyklių gretimoms žemėlapius.


METAR-TAF: